sensor_id;sensor_type;location;lat;lon;timestamp;temperature;humidity
29201;DHT22;16244;51.956;12.980;2023-02-18T00:01:19;6.20;90.40
29201;DHT22;16244;51.956;12.980;2023-02-18T00:03:48;6.20;90.70
29201;DHT22;16244;51.956;12.980;2023-02-18T00:06:18;6.00;90.70
29201;DHT22;16244;51.956;12.980;2023-02-18T00:08:46;6.00;90.90
29201;DHT22;16244;51.956;12.980;2023-02-18T00:11:14;6.00;91.00
29201;DHT22;16244;51.956;12.980;2023-02-18T00:13:43;5.90;90.90
29201;DHT22;16244;51.956;12.980;2023-02-18T00:16:11;5.90;91.00
29201;DHT22;16244;51.956;12.980;2023-02-18T00:18:39;5.90;91.00
29201;DHT22;16244;51.956;12.980;2023-02-18T00:21:07;5.90;91.20
29201;DHT22;16244;51.956;12.980;2023-02-18T00:23:35;5.80;90.70
29201;DHT22;16244;51.956;12.980;2023-02-18T00:26:06;5.80;90.70
29201;DHT22;16244;51.956;12.980;2023-02-18T00:28:34;5.80;90.70
29201;DHT22;16244;51.956;12.980;2023-02-18T00:31:05;5.80;90.50
29201;DHT22;16244;51.956;12.980;2023-02-18T00:33:35;5.80;90.30
29201;DHT22;16244;51.956;12.980;2023-02-18T00:36:04;5.90;90.40
29201;DHT22;16244;51.956;12.980;2023-02-18T00:38:33;5.80;90.70
29201;DHT22;16244;51.956;12.980;2023-02-18T00:41:00;5.70;91.00
29201;DHT22;16244;51.956;12.980;2023-02-18T00:43:28;5.70;91.10
29201;DHT22;16244;51.956;12.980;2023-02-18T00:45:55;5.60;91.40
29201;DHT22;16244;51.956;12.980;2023-02-18T00:48:23;5.60;91.40
29201;DHT22;16244;51.956;12.980;2023-02-18T00:50:52;5.50;91.30
29201;DHT22;16244;51.956;12.980;2023-02-18T00:53:19;5.60;91.50
29201;DHT22;16244;51.956;12.980;2023-02-18T00:55:47;5.60;91.60
29201;DHT22;16244;51.956;12.980;2023-02-18T00:58:15;5.50;91.60
29201;DHT22;16244;51.956;12.980;2023-02-18T01:00:43;5.50;91.60
29201;DHT22;16244;51.956;12.980;2023-02-18T01:03:12;5.50;91.50
29201;DHT22;16244;51.956;12.980;2023-02-18T01:05:40;5.50;91.90
29201;DHT22;16244;51.956;12.980;2023-02-18T01:08:16;5.50;92.10
29201;DHT22;16244;51.956;12.980;2023-02-18T01:10:53;5.40;92.20
29201;DHT22;16244;51.956;12.980;2023-02-18T01:13:22;5.40;92.30
29201;DHT22;16244;51.956;12.980;2023-02-18T01:15:50;5.40;92.20
29201;DHT22;16244;51.956;12.980;2023-02-18T01:18:17;5.40;92.30
29201;DHT22;16244;51.956;12.980;2023-02-18T01:20:46;5.30;92.50
29201;DHT22;16244;51.956;12.980;2023-02-18T01:23:15;5.40;92.30
29201;DHT22;16244;51.956;12.980;2023-02-18T01:25:43;5.40;92.30
29201;DHT22;16244;51.956;12.980;2023-02-18T01:28:12;5.40;92.20
29201;DHT22;16244;51.956;12.980;2023-02-18T01:30:41;5.40;92.10
29201;DHT22;16244;51.956;12.980;2023-02-18T01:33:08;5.40;92.20
29201;DHT22;16244;51.956;12.980;2023-02-18T01:35:37;5.40;92.30
29201;DHT22;16244;51.956;12.980;2023-02-18T01:38:05;5.40;92.40
29201;DHT22;16244;51.956;12.980;2023-02-18T01:40:34;5.40;92.20
29201;DHT22;16244;51.956;12.980;2023-02-18T01:43:01;5.40;92.20
29201;DHT22;16244;51.956;12.980;2023-02-18T01:45:55;5.40;92.10
29201;DHT22;16244;51.956;12.980;2023-02-18T01:48:27;5.30;92.40
29201;DHT22;16244;51.956;12.980;2023-02-18T01:50:58;5.30;92.20
29201;DHT22;16244;51.956;12.980;2023-02-18T01:53:29;5.40;92.10
29201;DHT22;16244;51.956;12.980;2023-02-18T01:55:59;5.30;92.40
29201;DHT22;16244;51.956;12.980;2023-02-18T01:58:29;5.30;92.30
29201;DHT22;16244;51.956;12.980;2023-02-18T02:00:56;5.30;92.50
29201;DHT22;16244;51.956;12.980;2023-02-18T02:03:24;5.20;92.80
29201;DHT22;16244;51.956;12.980;2023-02-18T02:05:51;5.20;92.30
29201;DHT22;16244;51.956;12.980;2023-02-18T02:08:19;5.20;92.10
29201;DHT22;16244;51.956;12.980;2023-02-18T02:11:01;5.20;92.80
29201;DHT22;16244;51.956;12.980;2023-02-18T02:13:43;5.20;92.10
29201;DHT22;16244;51.956;12.980;2023-02-18T02:16:18;5.20;92.30
29201;DHT22;16244;51.956;12.980;2023-02-18T02:18:56;5.20;92.00
29201;DHT22;16244;51.956;12.980;2023-02-18T02:21:45;5.20;92.00
29201;DHT22;16244;51.956;12.980;2023-02-18T02:24:54;5.20;92.10
29201;DHT22;16244;51.956;12.980;2023-02-18T02:27:31;5.10;92.40
29201;DHT22;16244;51.956;12.980;2023-02-18T02:30:38;5.10;92.40
29201;DHT22;16244;51.956;12.980;2023-02-18T02:33:23;5.00;92.50
29201;DHT22;16244;51.956;12.980;2023-02-18T02:36:00;5.00;92.50
29201;DHT22;16244;51.956;12.980;2023-02-18T02:38:33;5.00;92.40
29201;DHT22;16244;51.956;12.980;2023-02-18T02:41:12;5.00;92.30
29201;DHT22;16244;51.956;12.980;2023-02-18T02:43:52;5.10;92.30
29201;DHT22;16244;51.956;12.980;2023-02-18T02:46:27;5.00;92.00
29201;DHT22;16244;51.956;12.980;2023-02-18T02:49:02;5.00;92.20
29201;DHT22;16244;51.956;12.980;2023-02-18T02:51:38;5.10;92.30
29201;DHT22;16244;51.956;12.980;2023-02-18T02:54:13;5.00;92.30
29201;DHT22;16244;51.956;12.980;2023-02-18T02:56:41;5.00;92.20
29201;DHT22;16244;51.956;12.980;2023-02-18T02:59:12;5.00;92.10
29201;DHT22;16244;51.956;12.980;2023-02-18T03:01:49;5.00;92.20
29201;DHT22;16244;51.956;12.980;2023-02-18T03:04:40;5.00;91.90
29201;DHT22;16244;51.956;12.980;2023-02-18T03:07:33;5.10;92.00
29201;DHT22;16244;51.956;12.980;2023-02-18T03:10:28;5.10;92.00
29201;DHT22;16244;51.956;12.980;2023-02-18T03:13:04;5.20;91.60
29201;DHT22;16244;51.956;12.980;2023-02-18T03:15:38;5.30;91.70
29201;DHT22;16244;51.956;12.980;2023-02-18T03:18:15;5.30;91.60
29201;DHT22;16244;51.956;12.980;2023-02-18T03:20:49;5.40;91.30
29201;DHT22;16244;51.956;12.980;2023-02-18T03:23:24;5.40;91.20
29201;DHT22;16244;51.956;12.980;2023-02-18T03:25:54;5.50;91.10
29201;DHT22;16244;51.956;12.980;2023-02-18T03:28:25;5.50;90.90
29201;DHT22;16244;51.956;12.980;2023-02-18T03:30:57;5.60;90.80
29201;DHT22;16244;51.956;12.980;2023-02-18T03:33:29;5.60;90.40
29201;DHT22;16244;51.956;12.980;2023-02-18T03:35:59;5.70;90.30
29201;DHT22;16244;51.956;12.980;2023-02-18T03:38:32;5.70;90.50
29201;DHT22;16244;51.956;12.980;2023-02-18T03:41:01;5.70;90.50
29201;DHT22;16244;51.956;12.980;2023-02-18T03:43:29;5.70;90.30
29201;DHT22;16244;51.956;12.980;2023-02-18T03:45:57;5.70;90.50
29201;DHT22;16244;51.956;12.980;2023-02-18T03:48:25;5.70;90.50
29201;DHT22;16244;51.956;12.980;2023-02-18T03:50:52;5.70;90.70
29201;DHT22;16244;51.956;12.980;2023-02-18T03:53:20;5.70;90.90
29201;DHT22;16244;51.956;12.980;2023-02-18T03:55:48;5.70;91.20
29201;DHT22;16244;51.956;12.980;2023-02-18T03:58:16;5.60;91.20
29201;DHT22;16244;51.956;12.980;2023-02-18T04:00:43;5.70;91.30
29201;DHT22;16244;51.956;12.980;2023-02-18T04:03:11;5.60;91.40
29201;DHT22;16244;51.956;12.980;2023-02-18T04:05:38;5.60;91.50
29201;DHT22;16244;51.956;12.980;2023-02-18T04:08:05;5.60;91.60
29201;DHT22;16244;51.956;12.980;2023-02-18T04:10:33;5.60;91.70
29201;DHT22;16244;51.956;12.980;2023-02-18T04:13:02;5.70;91.60
29201;DHT22;16244;51.956;12.980;2023-02-18T04:15:30;5.70;91.70
29201;DHT22;16244;51.956;12.980;2023-02-18T04:17:59;5.70;91.70
29201;DHT22;16244;51.956;12.980;2023-02-18T04:20:27;5.70;91.90
29201;DHT22;16244;51.956;12.980;2023-02-18T04:22:54;5.70;91.60
29201;DHT22;16244;51.956;12.980;2023-02-18T04:25:22;5.70;91.40
29201;DHT22;16244;51.956;12.980;2023-02-18T04:27:49;5.70;91.50
29201;DHT22;16244;51.956;12.980;2023-02-18T04:30:18;5.80;91.50
29201;DHT22;16244;51.956;12.980;2023-02-18T04:32:46;5.80;91.40
29201;DHT22;16244;51.956;12.980;2023-02-18T04:35:13;5.80;91.50
29201;DHT22;16244;51.956;12.980;2023-02-18T04:37:41;5.70;91.50
29201;DHT22;16244;51.956;12.980;2023-02-18T04:40:09;5.70;91.70
29201;DHT22;16244;51.956;12.980;2023-02-18T04:42:36;5.70;92.00
29201;DHT22;16244;51.956;12.980;2023-02-18T04:45:05;5.70;91.80
29201;DHT22;16244;51.956;12.980;2023-02-18T04:47:34;5.70;91.90
29201;DHT22;16244;51.956;12.980;2023-02-18T04:50:01;5.70;91.90
29201;DHT22;16244;51.956;12.980;2023-02-18T04:52:29;5.70;91.80
29201;DHT22;16244;51.956;12.980;2023-02-18T04:54:56;5.80;91.70
29201;DHT22;16244;51.956;12.980;2023-02-18T04:57:23;5.80;91.50
29201;DHT22;16244;51.956;12.980;2023-02-18T04:59:51;5.80;91.10
29201;DHT22;16244;51.956;12.980;2023-02-18T05:02:18;5.80;91.60
29201;DHT22;16244;51.956;12.980;2023-02-18T05:04:47;5.70;91.50
29201;DHT22;16244;51.956;12.980;2023-02-18T05:07:14;5.70;92.30
29201;DHT22;16244;51.956;12.980;2023-02-18T05:09:42;5.70;91.80
29201;DHT22;16244;51.956;12.980;2023-02-18T05:12:09;5.70;91.70
29201;DHT22;16244;51.956;12.980;2023-02-18T05:14:37;5.80;91.60
29201;DHT22;16244;51.956;12.980;2023-02-18T05:17:04;5.80;91.60
29201;DHT22;16244;51.956;12.980;2023-02-18T05:19:32;5.90;91.80
29201;DHT22;16244;51.956;12.980;2023-02-18T05:22:00;5.90;91.90
29201;DHT22;16244;51.956;12.980;2023-02-18T05:24:28;5.90;91.80
29201;DHT22;16244;51.956;12.980;2023-02-18T05:26:55;5.90;91.70
29201;DHT22;16244;51.956;12.980;2023-02-18T05:29:23;6.00;91.70
29201;DHT22;16244;51.956;12.980;2023-02-18T05:31:50;6.00;91.70
29201;DHT22;16244;51.956;12.980;2023-02-18T05:34:18;6.00;91.90
29201;DHT22;16244;51.956;12.980;2023-02-18T05:36:45;6.00;91.70
29201;DHT22;16244;51.956;12.980;2023-02-18T05:39:14;6.00;91.70
29201;DHT22;16244;51.956;12.980;2023-02-18T05:41:41;6.00;91.90
29201;DHT22;16244;51.956;12.980;2023-02-18T05:44:09;6.10;91.50
29201;DHT22;16244;51.956;12.980;2023-02-18T05:46:54;6.10;91.60
29201;DHT22;16244;51.956;12.980;2023-02-18T05:49:22;6.10;91.30
29201;DHT22;16244;51.956;12.980;2023-02-18T05:51:49;6.10;91.70
29201;DHT22;16244;51.956;12.980;2023-02-18T05:54:18;6.20;91.30
29201;DHT22;16244;51.956;12.980;2023-02-18T05:56:46;6.20;91.40
29201;DHT22;16244;51.956;12.980;2023-02-18T05:59:13;6.20;91.10
29201;DHT22;16244;51.956;12.980;2023-02-18T06:01:42;6.20;91.20
29201;DHT22;16244;51.956;12.980;2023-02-18T06:04:10;6.30;91.40
29201;DHT22;16244;51.956;12.980;2023-02-18T06:06:38;6.20;91.40
29201;DHT22;16244;51.956;12.980;2023-02-18T06:09:06;6.20;91.70
29201;DHT22;16244;51.956;12.980;2023-02-18T06:11:35;6.30;91.40
29201;DHT22;16244;51.956;12.980;2023-02-18T06:14:03;6.20;91.60
29201;DHT22;16244;51.956;12.980;2023-02-18T06:16:31;6.30;91.40
29201;DHT22;16244;51.956;12.980;2023-02-18T06:18:58;6.20;91.70
29201;DHT22;16244;51.956;12.980;2023-02-18T06:21:26;6.30;91.70
29201;DHT22;16244;51.956;12.980;2023-02-18T06:23:54;6.30;91.70
29201;DHT22;16244;51.956;12.980;2023-02-18T06:26:21;6.20;91.70
29201;DHT22;16244;51.956;12.980;2023-02-18T06:28:50;6.20;92.10
29201;DHT22;16244;51.956;12.980;2023-02-18T06:31:17;6.30;91.90
29201;DHT22;16244;51.956;12.980;2023-02-18T06:33:45;6.30;92.10
29201;DHT22;16244;51.956;12.980;2023-02-18T06:36:12;6.30;91.70
29201;DHT22;16244;51.956;12.980;2023-02-18T06:38:42;6.30;91.80
29201;DHT22;16244;51.956;12.980;2023-02-18T06:41:10;6.30;91.60
29201;DHT22;16244;51.956;12.980;2023-02-18T06:43:38;6.40;91.90
29201;DHT22;16244;51.956;12.980;2023-02-18T06:46:07;6.40;92.10
29201;DHT22;16244;51.956;12.980;2023-02-18T06:48:35;6.40;92.30
29201;DHT22;16244;51.956;12.980;2023-02-18T06:51:03;6.40;92.70
29201;DHT22;16244;51.956;12.980;2023-02-18T06:53:31;6.30;93.40
29201;DHT22;16244;51.956;12.980;2023-02-18T06:55:58;6.30;93.40
29201;DHT22;16244;51.956;12.980;2023-02-18T06:58:26;6.40;93.70
29201;DHT22;16244;51.956;12.980;2023-02-18T07:00:53;6.40;93.60
29201;DHT22;16244;51.956;12.980;2023-02-18T07:03:22;6.30;93.80
29201;DHT22;16244;51.956;12.980;2023-02-18T07:05:50;6.40;94.00
29201;DHT22;16244;51.956;12.980;2023-02-18T07:08:17;6.40;94.10
29201;DHT22;16244;51.956;12.980;2023-02-18T07:10:45;6.40;94.40
29201;DHT22;16244;51.956;12.980;2023-02-18T07:13:13;6.40;94.50
29201;DHT22;16244;51.956;12.980;2023-02-18T07:15:40;6.40;95.10
29201;DHT22;16244;51.956;12.980;2023-02-18T07:18:08;6.40;95.60
29201;DHT22;16244;51.956;12.980;2023-02-18T07:20:37;6.30;95.90
29201;DHT22;16244;51.956;12.980;2023-02-18T07:23:04;6.30;96.40
29201;DHT22;16244;51.956;12.980;2023-02-18T07:25:32;6.30;96.90
29201;DHT22;16244;51.956;12.980;2023-02-18T07:27:59;6.30;97.20
29201;DHT22;16244;51.956;12.980;2023-02-18T07:30:27;6.30;97.70
29201;DHT22;16244;51.956;12.980;2023-02-18T07:32:54;6.30;97.80
29201;DHT22;16244;51.956;12.980;2023-02-18T07:35:22;6.30;98.10
29201;DHT22;16244;51.956;12.980;2023-02-18T07:37:51;6.30;98.50
29201;DHT22;16244;51.956;12.980;2023-02-18T07:40:20;6.30;98.90
29201;DHT22;16244;51.956;12.980;2023-02-18T07:42:47;6.30;99.20
29201;DHT22;16244;51.956;12.980;2023-02-18T07:45:15;6.30;99.70
29201;DHT22;16244;51.956;12.980;2023-02-18T07:47:43;6.20;99.90
29201;DHT22;16244;51.956;12.980;2023-02-18T07:50:13;6.20;99.90
29201;DHT22;16244;51.956;12.980;2023-02-18T07:52:41;6.20;99.90
29201;DHT22;16244;51.956;12.980;2023-02-18T07:55:10;6.30;99.90
29201;DHT22;16244;51.956;12.980;2023-02-18T07:57:37;6.20;99.90
29201;DHT22;16244;51.956;12.980;2023-02-18T08:00:23;6.10;99.90
29201;DHT22;16244;51.956;12.980;2023-02-18T08:02:50;6.20;99.90
29201;DHT22;16244;51.956;12.980;2023-02-18T08:05:18;6.20;99.90
29201;DHT22;16244;51.956;12.980;2023-02-18T08:07:46;6.20;99.90
29201;DHT22;16244;51.956;12.980;2023-02-18T08:10:16;6.20;99.90
29201;DHT22;16244;51.956;12.980;2023-02-18T08:12:43;6.20;99.90
29201;DHT22;16244;51.956;12.980;2023-02-18T08:15:11;6.10;99.90
29201;DHT22;16244;51.956;12.980;2023-02-18T08:17:39;6.20;99.90
29201;DHT22;16244;51.956;12.980;2023-02-18T08:20:08;6.20;99.90
29201;DHT22;16244;51.956;12.980;2023-02-18T08:22:36;6.30;99.90
29201;DHT22;16244;51.956;12.980;2023-02-18T08:25:04;6.30;99.90
29201;DHT22;16244;51.956;12.980;2023-02-18T08:27:35;6.30;99.90
29201;DHT22;16244;51.956;12.980;2023-02-18T08:30:06;6.30;99.90
29201;DHT22;16244;51.956;12.980;2023-02-18T08:32:34;6.30;99.90
29201;DHT22;16244;51.956;12.980;2023-02-18T08:35:02;6.30;99.90
29201;DHT22;16244;51.956;12.980;2023-02-18T08:37:29;6.30;99.90
29201;DHT22;16244;51.956;12.980;2023-02-18T08:39:57;6.30;99.90
29201;DHT22;16244;51.956;12.980;2023-02-18T08:42:24;6.30;99.90
29201;DHT22;16244;51.956;12.980;2023-02-18T08:44:53;6.40;99.90
29201;DHT22;16244;51.956;12.980;2023-02-18T08:47:21;6.30;99.90
29201;DHT22;16244;51.956;12.980;2023-02-18T08:49:48;6.40;99.90
29201;DHT22;16244;51.956;12.980;2023-02-18T08:52:16;6.30;99.90
29201;DHT22;16244;51.956;12.980;2023-02-18T08:54:43;6.40;99.90
29201;DHT22;16244;51.956;12.980;2023-02-18T08:57:11;6.40;99.90
29201;DHT22;16244;51.956;12.980;2023-02-18T08:59:38;6.40;99.90
29201;DHT22;16244;51.956;12.980;2023-02-18T09:02:09;6.40;99.90
29201;DHT22;16244;51.956;12.980;2023-02-18T09:04:36;6.30;99.90
29201;DHT22;16244;51.956;12.980;2023-02-18T09:07:04;6.40;99.90
29201;DHT22;16244;51.956;12.980;2023-02-18T09:09:31;6.40;99.90
29201;DHT22;16244;51.956;12.980;2023-02-18T09:11:59;6.40;99.90
29201;DHT22;16244;51.956;12.980;2023-02-18T09:14:26;6.40;99.90
29201;DHT22;16244;51.956;12.980;2023-02-18T09:16:56;6.50;99.90
29201;DHT22;16244;51.956;12.980;2023-02-18T09:19:25;6.50;99.90
29201;DHT22;16244;51.956;12.980;2023-02-18T09:21:52;6.50;99.90
29201;DHT22;16244;51.956;12.980;2023-02-18T09:24:22;6.50;99.90
29201;DHT22;16244;51.956;12.980;2023-02-18T09:26:50;6.50;99.90
29201;DHT22;16244;51.956;12.980;2023-02-18T09:29:19;6.50;99.90
29201;DHT22;16244;51.956;12.980;2023-02-18T09:31:47;6.50;99.90
29201;DHT22;16244;51.956;12.980;2023-02-18T09:34:14;6.60;99.90
29201;DHT22;16244;51.956;12.980;2023-02-18T09:36:43;6.60;99.90
29201;DHT22;16244;51.956;12.980;2023-02-18T09:39:10;6.70;99.90
29201;DHT22;16244;51.956;12.980;2023-02-18T09:41:42;6.70;99.90
29201;DHT22;16244;51.956;12.980;2023-02-18T09:44:15;6.80;99.90
29201;DHT22;16244;51.956;12.980;2023-02-18T09:46:49;6.90;99.90
29201;DHT22;16244;51.956;12.980;2023-02-18T09:49:20;6.90;99.90
29201;DHT22;16244;51.956;12.980;2023-02-18T09:51:49;6.90;99.90
29201;DHT22;16244;51.956;12.980;2023-02-18T09:54:19;7.00;99.90
29201;DHT22;16244;51.956;12.980;2023-02-18T09:56:48;6.90;99.90
29201;DHT22;16244;51.956;12.980;2023-02-18T09:59:19;6.90;99.90
29201;DHT22;16244;51.956;12.980;2023-02-18T10:01:49;7.00;99.90
29201;DHT22;16244;51.956;12.980;2023-02-18T10:04:21;7.00;99.90
29201;DHT22;16244;51.956;12.980;2023-02-18T10:06:51;7.00;99.90
29201;DHT22;16244;51.956;12.980;2023-02-18T10:09:21;7.10;99.90
29201;DHT22;16244;51.956;12.980;2023-02-18T10:11:51;7.10;99.90
29201;DHT22;16244;51.956;12.980;2023-02-18T10:14:21;7.20;99.90
29201;DHT22;16244;51.956;12.980;2023-02-18T10:16:50;7.20;99.90
29201;DHT22;16244;51.956;12.980;2023-02-18T10:19:25;7.20;99.90
29201;DHT22;16244;51.956;12.980;2023-02-18T10:21:56;7.30;99.90
29201;DHT22;16244;51.956;12.980;2023-02-18T10:24:28;7.30;99.90
29201;DHT22;16244;51.956;12.980;2023-02-18T10:26:57;7.40;99.90
29201;DHT22;16244;51.956;12.980;2023-02-18T10:29:26;7.40;99.90
29201;DHT22;16244;51.956;12.980;2023-02-18T10:31:56;7.50;99.90
29201;DHT22;16244;51.956;12.980;2023-02-18T10:34:36;7.50;99.90
29201;DHT22;16244;51.956;12.980;2023-02-18T10:37:21;7.50;99.90
29201;DHT22;16244;51.956;12.980;2023-02-18T10:40:02;7.50;99.90
29201;DHT22;16244;51.956;12.980;2023-02-18T10:42:36;7.60;99.90
29201;DHT22;16244;51.956;12.980;2023-02-18T10:45:13;7.60;99.90
29201;DHT22;16244;51.956;12.980;2023-02-18T10:47:49;7.70;99.90
29201;DHT22;16244;51.956;12.980;2023-02-18T10:50:25;7.80;99.90
29201;DHT22;16244;51.956;12.980;2023-02-18T10:52:58;7.90;99.90
29201;DHT22;16244;51.956;12.980;2023-02-18T10:55:35;7.90;99.90
29201;DHT22;16244;51.956;12.980;2023-02-18T10:58:03;7.90;99.90
29201;DHT22;16244;51.956;12.980;2023-02-18T11:00:34;8.00;99.90
29201;DHT22;16244;51.956;12.980;2023-02-18T11:03:15;8.00;99.90
29201;DHT22;16244;51.956;12.980;2023-02-18T11:05:44;8.10;99.90
29201;DHT22;16244;51.956;12.980;2023-02-18T11:08:17;8.10;99.90
29201;DHT22;16244;51.956;12.980;2023-02-18T11:10:47;8.20;99.90
29201;DHT22;16244;51.956;12.980;2023-02-18T11:13:21;8.20;99.90
29201;DHT22;16244;51.956;12.980;2023-02-18T11:15:56;8.40;99.90
29201;DHT22;16244;51.956;12.980;2023-02-18T11:18:31;8.50;99.90
29201;DHT22;16244;51.956;12.980;2023-02-18T11:21:01;8.60;99.90
29201;DHT22;16244;51.956;12.980;2023-02-18T11:23:31;8.70;99.90
29201;DHT22;16244;51.956;12.980;2023-02-18T11:26:13;8.80;99.90
29201;DHT22;16244;51.956;12.980;2023-02-18T11:28:43;8.80;99.90
29201;DHT22;16244;51.956;12.980;2023-02-18T11:31:16;8.90;99.90
29201;DHT22;16244;51.956;12.980;2023-02-18T11:33:49;9.00;99.90
29201;DHT22;16244;51.956;12.980;2023-02-18T11:36:24;9.10;99.90
29201;DHT22;16244;51.956;12.980;2023-02-18T11:38:56;9.20;99.90
29201;DHT22;16244;51.956;12.980;2023-02-18T11:41:34;9.30;99.90
29201;DHT22;16244;51.956;12.980;2023-02-18T11:44:04;9.40;99.90
29201;DHT22;16244;51.956;12.980;2023-02-18T11:46:32;9.50;99.90
29201;DHT22;16244;51.956;12.980;2023-02-18T11:49:11;9.60;99.90
29201;DHT22;16244;51.956;12.980;2023-02-18T11:51:47;9.70;99.90
29201;DHT22;16244;51.956;12.980;2023-02-18T11:54:23;9.80;99.90
29201;DHT22;16244;51.956;12.980;2023-02-18T11:56:56;9.80;99.90
29201;DHT22;16244;51.956;12.980;2023-02-18T11:59:24;9.90;99.90
29201;DHT22;16244;51.956;12.980;2023-02-18T12:01:54;9.90;99.90
29201;DHT22;16244;51.956;12.980;2023-02-18T12:04:28;9.90;99.90
29201;DHT22;16244;51.956;12.980;2023-02-18T12:07:09;9.90;99.90
29201;DHT22;16244;51.956;12.980;2023-02-18T12:09:44;10.00;99.90
29201;DHT22;16244;51.956;12.980;2023-02-18T12:12:16;10.00;99.90
29201;DHT22;16244;51.956;12.980;2023-02-18T12:14:44;10.00;99.90
29201;DHT22;16244;51.956;12.980;2023-02-18T12:17:37;10.00;99.90
29201;DHT22;16244;51.956;12.980;2023-02-18T12:20:39;10.00;99.90
29201;DHT22;16244;51.956;12.980;2023-02-18T12:23:16;10.10;99.90
29201;DHT22;16244;51.956;12.980;2023-02-18T12:25:55;10.10;99.90
29201;DHT22;16244;51.956;12.980;2023-02-18T12:28:32;10.20;99.90
29201;DHT22;16244;51.956;12.980;2023-02-18T12:31:14;10.20;99.90
29201;DHT22;16244;51.956;12.980;2023-02-18T12:33:54;10.30;99.90
29201;DHT22;16244;51.956;12.980;2023-02-18T12:36:33;10.30;99.90
29201;DHT22;16244;51.956;12.980;2023-02-18T12:39:11;10.30;99.90
29201;DHT22;16244;51.956;12.980;2023-02-18T12:41:58;10.30;99.90
29201;DHT22;16244;51.956;12.980;2023-02-18T12:44:34;10.30;99.90
29201;DHT22;16244;51.956;12.980;2023-02-18T12:47:22;10.30;99.90
29201;DHT22;16244;51.956;12.980;2023-02-18T12:50:10;10.40;99.90
29201;DHT22;16244;51.956;12.980;2023-02-18T12:52:48;10.40;99.90
29201;DHT22;16244;51.956;12.980;2023-02-18T12:55:39;10.40;99.90
29201;DHT22;16244;51.956;12.980;2023-02-18T12:58:18;10.30;99.90
29201;DHT22;16244;51.956;12.980;2023-02-18T13:01:11;10.30;99.90
29201;DHT22;16244;51.956;12.980;2023-02-18T13:04:17;10.20;99.90
29201;DHT22;16244;51.956;12.980;2023-02-18T13:06:54;10.20;99.90
29201;DHT22;16244;51.956;12.980;2023-02-18T13:09:32;10.20;99.90
29201;DHT22;16244;51.956;12.980;2023-02-18T13:12:10;10.30;99.90
29201;DHT22;16244;51.956;12.980;2023-02-18T13:14:47;10.30;99.90
29201;DHT22;16244;51.956;12.980;2023-02-18T13:17:17;10.30;99.90
29201;DHT22;16244;51.956;12.980;2023-02-18T13:19:49;10.30;99.90
29201;DHT22;16244;51.956;12.980;2023-02-18T13:22:19;10.30;99.90
29201;DHT22;16244;51.956;12.980;2023-02-18T13:24:49;10.30;99.90
29201;DHT22;16244;51.956;12.980;2023-02-18T13:27:21;10.40;99.40
29201;DHT22;16244;51.956;12.980;2023-02-18T13:29:57;10.40;99.30
29201;DHT22;16244;51.956;12.980;2023-02-18T13:32:30;10.40;99.00
29201;DHT22;16244;51.956;12.980;2023-02-18T13:35:14;10.40;99.20
29201;DHT22;16244;51.956;12.980;2023-02-18T13:37:54;10.50;98.20
29201;DHT22;16244;51.956;12.980;2023-02-18T13:40:29;10.60;97.90
29201;DHT22;16244;51.956;12.980;2023-02-18T13:43:16;10.60;98.00
29201;DHT22;16244;51.956;12.980;2023-02-18T13:46:02;10.50;98.00
29201;DHT22;16244;51.956;12.980;2023-02-18T13:48:41;10.50;98.30
29201;DHT22;16244;51.956;12.980;2023-02-18T13:51:11;10.40;98.30
29201;DHT22;16244;51.956;12.980;2023-02-18T13:53:42;10.40;98.10
29201;DHT22;16244;51.956;12.980;2023-02-18T13:56:19;10.40;97.90
29201;DHT22;16244;51.956;12.980;2023-02-18T13:58:49;10.40;97.80
29201;DHT22;16244;51.956;12.980;2023-02-18T14:01:22;10.40;97.90
29201;DHT22;16244;51.956;12.980;2023-02-18T14:03:54;10.40;97.70
29201;DHT22;16244;51.956;12.980;2023-02-18T14:06:24;10.40;97.40
29201;DHT22;16244;51.956;12.980;2023-02-18T14:11:56;10.40;96.90
29201;DHT22;16244;51.956;12.980;2023-02-18T14:14:44;10.40;95.80
29201;DHT22;16244;51.956;12.980;2023-02-18T14:17:38;10.40;96.40
29201;DHT22;16244;51.956;12.980;2023-02-18T14:20:44;10.40;96.10
29201;DHT22;16244;51.956;12.980;2023-02-18T14:23:40;10.40;95.50
29201;DHT22;16244;51.956;12.980;2023-02-18T14:26:09;10.40;95.40
29201;DHT22;16244;51.956;12.980;2023-02-18T14:28:49;10.40;95.70
29201;DHT22;16244;51.956;12.980;2023-02-18T14:31:40;10.40;95.40
29201;DHT22;16244;51.956;12.980;2023-02-18T14:37:14;10.40;94.90
29201;DHT22;16244;51.956;12.980;2023-02-18T14:39:53;10.30;95.60
29201;DHT22;16244;51.956;12.980;2023-02-18T14:42:33;10.30;95.90
29201;DHT22;16244;51.956;12.980;2023-02-18T14:45:14;10.20;95.80
29201;DHT22;16244;51.956;12.980;2023-02-18T14:47:57;10.20;95.90
29201;DHT22;16244;51.956;12.980;2023-02-18T14:50:33;10.30;95.40
29201;DHT22;16244;51.956;12.980;2023-02-18T14:53:04;10.30;95.30
29201;DHT22;16244;51.956;12.980;2023-02-18T14:55:34;10.30;95.60
29201;DHT22;16244;51.956;12.980;2023-02-18T14:58:05;10.30;95.60
29201;DHT22;16244;51.956;12.980;2023-02-18T15:00:40;10.30;95.20
29201;DHT22;16244;51.956;12.980;2023-02-18T15:03:12;10.30;95.40
29201;DHT22;16244;51.956;12.980;2023-02-18T15:05:42;10.30;95.20
29201;DHT22;16244;51.956;12.980;2023-02-18T15:08:15;10.30;95.50
29201;DHT22;16244;51.956;12.980;2023-02-18T15:10:45;10.30;95.40
29201;DHT22;16244;51.956;12.980;2023-02-18T15:13:18;10.30;95.50
29201;DHT22;16244;51.956;12.980;2023-02-18T15:15:51;10.30;95.70
29201;DHT22;16244;51.956;12.980;2023-02-18T15:18:25;10.30;95.20
29201;DHT22;16244;51.956;12.980;2023-02-18T15:20:55;10.30;95.30
29201;DHT22;16244;51.956;12.980;2023-02-18T15:23:23;10.30;95.20
29201;DHT22;16244;51.956;12.980;2023-02-18T15:25:52;10.30;95.10
29201;DHT22;16244;51.956;12.980;2023-02-18T15:28:22;10.30;95.50
29201;DHT22;16244;51.956;12.980;2023-02-18T15:30:50;10.30;95.70
29201;DHT22;16244;51.956;12.980;2023-02-18T15:33:20;10.20;96.60
29201;DHT22;16244;51.956;12.980;2023-02-18T15:35:50;10.10;97.40
29201;DHT22;16244;51.956;12.980;2023-02-18T15:38:20;10.00;97.80
29201;DHT22;16244;51.956;12.980;2023-02-18T15:40:48;9.90;98.50
29201;DHT22;16244;51.956;12.980;2023-02-18T15:43:19;9.90;99.10
29201;DHT22;16244;51.956;12.980;2023-02-18T15:45:48;9.80;99.30
29201;DHT22;16244;51.956;12.980;2023-02-18T15:48:26;9.70;99.60
29201;DHT22;16244;51.956;12.980;2023-02-18T15:50:56;9.60;99.60
29201;DHT22;16244;51.956;12.980;2023-02-18T15:53:25;9.60;99.60
29201;DHT22;16244;51.956;12.980;2023-02-18T15:55:53;9.60;99.60
29201;DHT22;16244;51.956;12.980;2023-02-18T15:58:23;9.60;99.60
29201;DHT22;16244;51.956;12.980;2023-02-18T16:00:55;9.60;99.30
29201;DHT22;16244;51.956;12.980;2023-02-18T16:03:24;9.70;98.80